Darstellungsparameter: Aktuell verwendete Einstellungen:
Skalierung der Graphiken ... ?
xyx+y,   Skalierungsfaktor:      Skalierung: Modus: x, Faktor: 1
Darstellungszeitraum ... ?
Vom - - bis: - -   Zeitraum: 15.08.2019 - 15.08.2019
Min/Max/Avg-Anzeige ... ?
Zeige MMA aktuell
Zeige MMA Monat
Zeige MMA alles
Zeige --A aktuell
Zeige --A Monat
Zeige --A alles
Keine MMA-Anzeige
MMA:
Keine MMA-Graphiken
MMA-Basis: 15.08.2019 - 15.08.2019
Quicknavigation für Darstellung... ?
Tage:      1T, 2T, 3T, 5T -1T -2T -3T -5T +1T +2T +3T +5T
Wochen: 1W, 2W, 3W -1W -2W -3W +1W +2W +3W
Monate: 1M, 3M, 6M -1M -3M -6M +1M +3M +6M
Jahre:    1J, 3J, 5J, 10J -1J -3J -5J -10J +1J +3J +5J +10J
Nutze für die Darstellung ... ?
Originaldaten oder Mittelwerte auf ...
Stundenbasis Tagesbasis Wochenbasis
Monatsbasis Jahresbasis      Datenbasis: Original-Daten
Darstellen als:
Statistik (Auto) Statistik J:M      Darstellung:
Zur Graphik,    zurück zur Übersicht aller Sensoren.
 
Tabellarische Datenbersicht: ?
 
Sensor: Nr:Datum:Temp:Feuchte:
Aussen-T/F 1 15-08-2019 00:07:18 17.3 C 28 %
2 15-08-2019 00:19:17 17.3 C 27 %
3 15-08-2019 00:31:18 17.2 C 28 %
4 15-08-2019 00:43:18 17.7 C 25 %
5 15-08-2019 00:55:17 17.5 C 27 %
6 15-08-2019 01:07:18 17.5 C 27 %
7 15-08-2019 01:19:17 17.2 C 27 %
8 15-08-2019 01:31:18 17.2 C 28 %
9 15-08-2019 01:43:18 17.2 C 28 %
10 15-08-2019 01:55:17 16 C 37 %
11 15-08-2019 02:07:18 15.8 C 41 %
12 15-08-2019 02:19:17 15.2 C 45 %
13 15-08-2019 02:31:17 15.1 C 46 %
14 15-08-2019 02:43:17 15 C 47 %
15 15-08-2019 02:55:18 15 C 47 %
16 15-08-2019 03:07:17 14.9 C 49 %
17 15-08-2019 03:19:17 14.8 C 50 %
18 15-08-2019 03:31:17 14.7 C 50 %
19 15-08-2019 03:43:17 14.7 C 49 %
20 15-08-2019 03:55:17 14.6 C 50 %
21 15-08-2019 04:07:17 14.6 C 50 %
22 15-08-2019 04:19:17 14.7 C 50 %
23 15-08-2019 04:31:17 14.7 C 50 %
24 15-08-2019 04:43:17 14.7 C 50 %
25 15-08-2019 04:55:17 14.7 C 49 %
Sensor: Nr:Datum:Temp:Feuchte:
Aussen-T/F 26 15-08-2019 05:07:17 14.7 C 49 %
27 15-08-2019 05:19:17 14.7 C 49 %
28 15-08-2019 05:31:17 14.7 C 49 %
29 15-08-2019 05:43:18 14.7 C 48 %
30 15-08-2019 05:55:17 14.8 C 49 %
31 15-08-2019 06:07:17 14.9 C 48 %
32 15-08-2019 06:19:17 14.8 C 47 %
33 15-08-2019 06:31:17 14.8 C 48 %
34 15-08-2019 06:43:17 14.9 C 49 %
35 15-08-2019 06:55:17 15.2 C 46 %
36 15-08-2019 07:07:17 15.3 C 45 %
37 15-08-2019 07:19:18 15.5 C 42 %
38 15-08-2019 07:31:17 16.1 C 41 %
39 15-08-2019 07:43:17 16.5 C 35 %
40 15-08-2019 07:55:18 17.4 C 31 %
41 15-08-2019 08:07:17 17.6 C 30 %
42 15-08-2019 08:19:17 17.3 C 31 %
43 15-08-2019 08:31:17 17.3 C 34 %
44 15-08-2019 08:43:18 18 C 30 %
45 15-08-2019 08:55:17 18.3 C 30 %
46 15-08-2019 09:07:17 18.5 C 30 %
47 15-08-2019 09:19:17 18.6 C 30 %
48 15-08-2019 09:31:18 18.7 C 30 %
49 15-08-2019 09:43:18 18.8 C 30 %
50 15-08-2019 09:55:17 19 C 29 %
Sensor: Nr:Datum:Temp:Feuchte:
Aussen-T/F 51 15-08-2019 10:07:18 19.2 C 29 %
52 15-08-2019 10:19:17 19.4 C 29 %
53 15-08-2019 10:31:18 19.7 C 28 %
54 15-08-2019 10:43:18 20 C 28 %
55 15-08-2019 10:55:17 19.9 C 28 %
56 15-08-2019 11:07:17 19.6 C 29 %
57 15-08-2019 11:19:17 19.5 C 30 %
58 15-08-2019 11:31:18 19.5 C 30 %
59 15-08-2019 11:43:18 19.9 C 29 %
60 15-08-2019 11:55:17 19.5 C 30 %
61 15-08-2019 12:07:18 19.9 C 29 %
62 15-08-2019 12:19:17 20.3 C 27 %
63 15-08-2019 12:31:18 21 C 25 %
64 15-08-2019 12:43:18 20.4 C 26 %
65 15-08-2019 12:55:17 18.5 C 38 %
66 15-08-2019 13:07:18 18.2 C 40 %
67 15-08-2019 13:19:17 17.8 C 45 %
68 15-08-2019 13:31:18 18.3 C 44 %
69 15-08-2019 13:43:18 18.1 C 45 %
70 15-08-2019 13:55:17 18.7 C 46 %
71 15-08-2019 14:07:18 19.2 C 37 %
72 15-08-2019 14:19:17 19.5 C 34 %
73 15-08-2019 14:31:18 19.6 C 35 %
74 15-08-2019 14:43:18 20.5 C 32 %
75 15-08-2019 14:55:17 21.3 C 28 %
Sensor: Nr:Datum:Temp:Feuchte:
Aussen-T/F 76 15-08-2019 15:07:18 22 C 26 %
77 15-08-2019 15:19:17 22.5 C 25 %
78 15-08-2019 15:31:18 20.4 C 30 %
79 15-08-2019 15:43:18 18.7 C 45 %
80 15-08-2019 15:55:17 18.9 C 46 %
81 15-08-2019 16:07:17 19.1 C 43 %
82 15-08-2019 16:19:17 20 C 39 %
83 15-08-2019 16:31:18 19.8 C 35 %
84 15-08-2019 16:43:18 18.6 C 36 %
85 15-08-2019 16:56:17 17.2 C 44 %
86 15-08-2019 17:07:18 17.2 C 48 %
87 15-08-2019 17:19:17 16.7 C 48 %
88 15-08-2019 17:32:17 16.9 C 48 %
89 15-08-2019 17:44:17 16.8 C 46 %
90 15-08-2019 17:55:17 16.8 C 45 %
91 15-08-2019 18:07:17 16.8 C 45 %
92 15-08-2019 18:20:17 16.7 C 47 %
93 15-08-2019 18:31:17 16.7 C 46 %
94 15-08-2019 18:43:17 16.7 C 46 %
95 15-08-2019 18:55:17 16.9 C 46 %
96 15-08-2019 19:08:17 17.4 C 46 %
97 15-08-2019 19:20:17 17.4 C 44 %
98 15-08-2019 19:31:17 17.2 C 43 %
99 15-08-2019 19:43:17 17 C 45 %
100 15-08-2019 19:55:18 17 C 46 %
Sensor: Nr:Datum:Temp:Feuchte:
Aussen-T/F 101 15-08-2019 20:08:17 17 C 46 %
102 15-08-2019 20:20:17 17.1 C 46 %
103 15-08-2019 20:31:17 16.9 C 46 %
104 15-08-2019 20:43:17 16.7 C 46 %
105 15-08-2019 20:55:18 16.4 C 48 %
106 15-08-2019 21:08:17 16.3 C 46 %
107 15-08-2019 21:20:17 16.4 C 44 %
108 15-08-2019 21:32:17 16.7 C 40 %
109 15-08-2019 21:43:17 16.2 C 46 %
110 15-08-2019 21:55:18 15.9 C 49 %
111 15-08-2019 22:08:17 15.8 C 49 %
112 15-08-2019 22:20:17 15.6 C 47 %
113 15-08-2019 22:32:17 15.4 C 48 %
114 15-08-2019 22:43:17 15.4 C 49 %
115 15-08-2019 22:55:18 15.4 C 47 %
116 15-08-2019 23:08:17 15.3 C 47 %
117 15-08-2019 23:20:17 15.3 C 48 %
118 15-08-2019 23:32:17 15.2 C 49 %
119 15-08-2019 23:44:17 15.2 C 50 %
120 15-08-2019 23:56:17 15.2 C 48 %
Sensor: Nr:Datum:Temp:Feuchte:
G-T/H 1 15-08-2019 00:07:18 19.2 C 58 %
2 15-08-2019 00:19:17 19.2 C 58 %
3 15-08-2019 00:31:18 19.2 C 59 %
4 15-08-2019 00:43:18 19.2 C 59 %
5 15-08-2019 00:55:17 19.2 C 59 %
6 15-08-2019 01:07:18 19.1 C 59 %
7 15-08-2019 01:19:17 19.1 C 59 %
8 15-08-2019 01:31:18 19.1 C 59 %
9 15-08-2019 01:43:18 19.1 C 59 %
10 15-08-2019 01:55:17 19.1 C 59 %
11 15-08-2019 02:07:18 19.1 C 59 %
12 15-08-2019 02:19:17 19.1 C 59 %
13 15-08-2019 02:31:17 19.1 C 59 %
14 15-08-2019 02:43:17 19.1 C 60 %
15 15-08-2019 02:55:18 19.1 C 60 %
16 15-08-2019 03:07:17 19 C 60 %
17 15-08-2019 03:19:17 19 C 60 %
18 15-08-2019 03:31:17 19 C 60 %
19 15-08-2019 03:43:17 19 C 60 %
20 15-08-2019 03:55:17 19 C 60 %
21 15-08-2019 04:07:17 19 C 60 %
22 15-08-2019 04:19:17 19 C 61 %
23 15-08-2019 04:31:17 18.9 C 62 %
24 15-08-2019 04:43:17 18.9 C 62 %
25 15-08-2019 04:55:17 18.9 C 62 %
Sensor: Nr:Datum:Temp:Feuchte:
G-T/H 26 15-08-2019 05:07:17 18.9 C 62 %
27 15-08-2019 05:19:17 18.9 C 62 %
28 15-08-2019 05:31:17 18.9 C 62 %
29 15-08-2019 05:43:18 18.9 C 62 %
30 15-08-2019 05:55:17 18.9 C 62 %
31 15-08-2019 06:07:17 18.8 C 62 %
32 15-08-2019 06:19:17 18.8 C 62 %
33 15-08-2019 06:31:17 18.8 C 62 %
34 15-08-2019 06:43:17 18.8 C 62 %
35 15-08-2019 06:55:17 18.8 C 62 %
36 15-08-2019 07:07:17 18.8 C 62 %
37 15-08-2019 07:19:18 18.8 C 62 %
38 15-08-2019 07:31:17 18.7 C 62 %
39 15-08-2019 07:43:17 18.7 C 63 %
40 15-08-2019 07:55:18 18.7 C 63 %
41 15-08-2019 08:07:17 18.7 C 63 %
42 15-08-2019 08:19:17 18.8 C 62 %
43 15-08-2019 08:31:17 18.8 C 63 %
44 15-08-2019 08:43:18 18.8 C 62 %
45 15-08-2019 08:55:17 18.8 C 63 %
46 15-08-2019 09:07:17 18.7 C 63 %
47 15-08-2019 09:19:17 18.7 C 62 %
48 15-08-2019 09:31:18 18.7 C 62 %
49 15-08-2019 09:43:18 18.7 C 62 %
50 15-08-2019 09:55:17 18.7 C 62 %
Sensor: Nr:Datum:Temp:Feuchte:
G-T/H 51 15-08-2019 10:07:18 18.7 C 62 %
52 15-08-2019 10:19:17 18.7 C 62 %
53 15-08-2019 10:31:18 18.7 C 62 %
54 15-08-2019 10:43:18 18.8 C 62 %
55 15-08-2019 10:55:17 18.7 C 62 %
56 15-08-2019 11:07:17 18.7 C 62 %
57 15-08-2019 11:19:17 18.7 C 62 %
58 15-08-2019 11:31:18 18.8 C 62 %
59 15-08-2019 11:43:18 18.8 C 62 %
60 15-08-2019 11:55:17 18.8 C 62 %
61 15-08-2019 12:07:18 18.8 C 62 %
62 15-08-2019 12:19:17 18.7 C 62 %
63 15-08-2019 12:31:18 18.8 C 63 %
64 15-08-2019 12:43:18 18.8 C 63 %
65 15-08-2019 12:55:17 18.8 C 63 %
66 15-08-2019 13:07:18 18.8 C 63 %
67 15-08-2019 13:19:17 18.9 C 63 %
68 15-08-2019 13:31:18 18.9 C 63 %
69 15-08-2019 13:43:18 18.8 C 63 %
70 15-08-2019 13:55:17 18.8 C 63 %
71 15-08-2019 14:07:18 18.9 C 63 %
72 15-08-2019 14:19:17 18.9 C 63 %
73 15-08-2019 14:31:18 18.9 C 64 %
74 15-08-2019 14:43:18 18.9 C 64 %
75 15-08-2019 14:55:17 18.9 C 64 %
Sensor: Nr:Datum:Temp:Feuchte:
G-T/H 76 15-08-2019 15:07:18 18.9 C 64 %
77 15-08-2019 15:19:17 19 C 63 %
78 15-08-2019 15:31:18 18.9 C 64 %
79 15-08-2019 15:43:18 18.9 C 64 %
80 15-08-2019 15:55:17 19 C 63 %
81 15-08-2019 16:07:17 19 C 63 %
82 15-08-2019 16:19:17 19 C 63 %
83 15-08-2019 16:31:18 19 C 63 %
84 15-08-2019 16:43:18 19 C 63 %
85 15-08-2019 16:56:17 19 C 63 %
86 15-08-2019 17:07:18 19 C 63 %
87 15-08-2019 17:19:17 19 C 63 %
88 15-08-2019 17:32:17 19 C 64 %
89 15-08-2019 17:44:17 19 C 64 %
90 15-08-2019 17:55:17 19 C 64 %
91 15-08-2019 18:07:17 19 C 64 %
92 15-08-2019 18:20:17 19 C 64 %
93 15-08-2019 18:31:17 19 C 64 %
94 15-08-2019 18:43:17 19 C 64 %
95 15-08-2019 18:55:17 19 C 64 %
96 15-08-2019 19:08:17 19 C 64 %
97 15-08-2019 19:20:17 19 C 64 %
98 15-08-2019 19:31:17 19 C 64 %
99 15-08-2019 19:43:17 19 C 64 %
100 15-08-2019 19:55:18 19 C 64 %
Sensor: Nr:Datum:Temp:Feuchte:
G-T/H 101 15-08-2019 20:08:17 19 C 64 %
102 15-08-2019 20:20:17 19 C 64 %
103 15-08-2019 20:31:17 19 C 64 %
104 15-08-2019 20:43:17 19 C 64 %
105 15-08-2019 20:55:18 19 C 64 %
106 15-08-2019 21:08:17 19 C 65 %
107 15-08-2019 21:20:17 19 C 65 %
108 15-08-2019 21:32:17 19 C 65 %
109 15-08-2019 21:43:17 18.9 C 66 %
110 15-08-2019 21:55:18 18.9 C 66 %
111 15-08-2019 22:08:17 19 C 65 %
112 15-08-2019 22:20:17 18.9 C 66 %
113 15-08-2019 22:32:17 18.9 C 67 %
114 15-08-2019 22:43:17 18.9 C 67 %
115 15-08-2019 22:55:18 18.9 C 67 %
116 15-08-2019 23:08:17 18.9 C 67 %
117 15-08-2019 23:20:17 18.9 C 66 %
118 15-08-2019 23:32:17 18.9 C 66 %
119 15-08-2019 23:44:17 18.9 C 66 %
120 15-08-2019 23:56:17 18.9 C 66 %

Legende:
   Min
   Max


Maximal/Minimal-Werte vom 15.08.2019 - 15.08.2019

Sensor Min Max Avg
Temp
(Aussen-T/F)
14.6 °C
15-08-2019  03:55:17
22.5 °C
15-08-2019  15:19:17
17.21 °C
Feuchte
(Aussen-T/F)
25 %
15-08-2019  00:43:18
50 %
15-08-2019  03:19:17
40.03 %
Temp
(G-T/H)
18.7 °C
15-08-2019  07:31:17
19.2 °C
15-08-2019  00:07:18
18.92 °C
Feuchte
(G-T/H)
58 %
15-08-2019  00:07:18
67 %
15-08-2019  22:32:17
62.63 %

Die Daten stammen von einer Davis Vantage Pro 2 Wetter-Station und werden unter Linux mit der Software wview2wettercgi und aufbereitet. Alle Angaben erfolgen ohne Gewähr für ihre Vollständigkeit oder Richtigkeit.
Kontakt: Rainer Krienke krienke@uni-koblenz.de . Meine Webseiten an der Uni Koblenz oder privat.
Version: $Revision: 0.78 $